createdAt,value
2018-03-16T00:01:17.566Z,17.33
2018-03-16T00:03:48.581Z,19.40
2018-03-16T00:06:19.762Z,19.63
2018-03-16T00:08:50.584Z,19.90
2018-03-16T00:11:21.008Z,17.97
2018-03-16T00:13:53.036Z,19.33
2018-03-16T00:16:23.234Z,18.20
2018-03-16T00:18:54.694Z,18.83
2018-03-16T00:21:24.993Z,16.57
2018-03-16T00:23:56.586Z,19.80
2018-03-16T00:26:27.052Z,20.03
2018-03-16T00:28:57.550Z,20.23
2018-03-16T00:31:28.184Z,19.77
2018-03-16T00:33:58.638Z,18.80
2018-03-16T00:37:58.418Z,19.90
2018-03-16T00:40:29.297Z,19.40
2018-03-16T00:42:59.890Z,20.17
2018-03-16T00:45:32.351Z,20.13
2018-03-16T00:48:02.542Z,21.00
2018-03-16T00:50:32.984Z,20.40
2018-03-16T00:53:03.453Z,19.27
2018-03-16T00:55:34.463Z,20.67
2018-03-16T00:58:05.598Z,20.60
2018-03-16T01:00:36.167Z,20.17
2018-03-16T01:03:06.898Z,19.10
2018-03-16T01:05:37.938Z,21.57
2018-03-16T01:08:08.698Z,19.13
2018-03-16T01:10:40.148Z,22.30
2018-03-16T01:13:10.837Z,19.33
2018-03-16T01:15:41.447Z,20.80
2018-03-16T01:18:12.812Z,21.03
2018-03-16T01:20:47.629Z,19.73
2018-03-16T01:23:17.895Z,22.17
2018-03-16T01:25:48.246Z,21.93
2018-03-16T01:28:19.445Z,20.27
2018-03-16T01:30:50.437Z,18.80
2018-03-16T01:33:20.539Z,19.13
2018-03-16T01:35:50.993Z,19.00
2018-03-16T01:38:22.334Z,21.67
2018-03-16T01:40:52.709Z,19.13
2018-03-16T01:43:23.005Z,18.57
2018-03-16T01:45:54.533Z,20.47
2018-03-16T01:48:25.161Z,20.20
2018-03-16T01:50:55.646Z,19.63
2018-03-16T01:53:26.661Z,21.97
2018-03-16T01:55:56.903Z,19.30
2018-03-16T01:58:27.725Z,21.23
2018-03-16T02:00:58.046Z,19.67
2018-03-16T02:03:28.811Z,21.87
2018-03-16T02:05:59.025Z,21.93
2018-03-16T02:08:29.482Z,20.33
2018-03-16T02:10:59.884Z,20.53
2018-03-16T02:14:32.970Z,19.20
2018-03-16T02:17:04.211Z,20.97
2018-03-16T02:19:34.879Z,21.13
2018-03-16T02:22:05.482Z,21.40
2018-03-16T02:24:35.839Z,20.07
2018-03-16T02:27:06.266Z,20.13
2018-03-16T02:29:36.527Z,23.27
2018-03-16T02:32:07.000Z,21.57
2018-03-16T02:34:37.421Z,19.67
2018-03-16T02:37:08.898Z,19.90
2018-03-16T02:39:40.051Z,20.37
2018-03-16T02:42:10.192Z,20.57
2018-03-16T02:44:40.710Z,21.30
2018-03-16T02:47:11.098Z,20.70
2018-03-16T02:49:42.485Z,22.13
2018-03-16T02:52:12.886Z,20.60
2018-03-16T02:54:43.953Z,22.30
2018-03-16T02:57:14.571Z,20.70
2018-03-16T02:59:46.427Z,21.47
2018-03-16T03:02:16.773Z,22.20
2018-03-16T03:04:47.356Z,20.07
2018-03-16T03:07:18.650Z,20.67
2018-03-16T03:09:49.169Z,20.20
2018-03-16T03:12:19.519Z,20.50
2018-03-16T03:14:49.806Z,22.87
2018-03-16T03:17:20.914Z,22.07
2018-03-16T03:19:51.381Z,21.77
2018-03-16T03:22:22.682Z,22.30
2018-03-16T03:24:53.279Z,20.57
2018-03-16T03:27:23.966Z,19.80
2018-03-16T03:29:54.415Z,22.63
2018-03-16T03:32:24.769Z,21.70
2018-03-16T03:34:54.905Z,21.37
2018-03-16T03:37:25.926Z,22.60
2018-03-16T03:39:56.218Z,21.03
2018-03-16T03:42:27.458Z,21.63
2018-03-16T03:44:58.034Z,22.63
2018-03-16T03:47:28.296Z,19.53
2018-03-16T03:49:58.726Z,20.57
2018-03-16T03:52:29.807Z,22.67
2018-03-16T03:55:01.210Z,21.50
2018-03-16T03:57:31.951Z,21.20
2018-03-16T04:00:02.358Z,20.13
2018-03-16T04:02:33.327Z,22.17
2018-03-16T04:05:04.306Z,21.27
2018-03-16T04:07:34.953Z,23.10
2018-03-16T04:10:06.104Z,21.03
2018-03-16T04:12:37.541Z,22.10
2018-03-16T04:15:07.741Z,22.87
2018-03-16T04:17:38.266Z,22.53
2018-03-16T04:20:09.354Z,21.20
2018-03-16T04:22:39.929Z,20.60
2018-03-16T04:25:10.404Z,22.83
2018-03-16T04:27:41.318Z,24.00
2018-03-16T04:30:11.584Z,22.37
2018-03-16T04:32:41.684Z,22.53
2018-03-16T04:35:11.982Z,22.73
2018-03-16T04:37:42.733Z,21.90
2018-03-16T04:40:13.362Z,22.23
2018-03-16T04:42:43.816Z,23.00
2018-03-16T04:45:14.625Z,23.10
2018-03-16T04:47:44.849Z,21.47
2018-03-16T04:50:16.718Z,21.47
2018-03-16T04:52:46.959Z,23.20
2018-03-16T04:55:18.076Z,23.27
2018-03-16T04:57:49.219Z,21.93
2018-03-16T05:00:19.811Z,23.50
2018-03-16T05:02:50.182Z,23.10
2018-03-16T05:05:21.434Z,22.00
2018-03-16T05:07:51.633Z,22.70
2018-03-16T05:10:21.900Z,22.43
2018-03-16T05:12:52.442Z,24.00
2018-03-16T05:15:23.030Z,23.90
2018-03-16T05:17:53.603Z,22.57
2018-03-16T05:20:23.820Z,23.33
2018-03-16T05:22:54.404Z,21.37
2018-03-16T05:25:24.489Z,25.07
2018-03-16T05:27:55.055Z,23.93
2018-03-16T05:30:26.122Z,23.20
2018-03-16T05:32:56.443Z,21.87
2018-03-16T05:35:26.875Z,23.53
2018-03-16T05:37:57.282Z,22.90
2018-03-16T05:40:27.607Z,21.90
2018-03-16T05:42:58.259Z,21.67
2018-03-16T05:45:28.892Z,22.57
2018-03-16T05:47:59.221Z,23.50
2018-03-16T05:50:29.546Z,23.70
2018-03-16T05:52:59.866Z,23.00
2018-03-16T05:55:30.065Z,23.70
2018-03-16T05:58:01.436Z,24.50
2018-03-16T06:00:32.398Z,23.87
2018-03-16T06:03:02.515Z,23.33
2018-03-16T06:05:32.870Z,23.07
2018-03-16T06:08:03.342Z,22.47
2018-03-16T06:10:34.246Z,20.50
2018-03-16T06:13:04.494Z,24.10
2018-03-16T06:15:35.051Z,24.13
2018-03-16T06:18:05.665Z,23.07
2018-03-16T06:20:36.590Z,24.80
2018-03-16T06:23:07.065Z,21.60
2018-03-16T06:25:37.315Z,25.27
2018-03-16T06:28:08.018Z,23.80
2018-03-16T06:30:38.913Z,21.60
2018-03-16T06:33:09.904Z,24.73
2018-03-16T06:35:40.894Z,22.50
2018-03-16T06:38:11.075Z,23.30
2018-03-16T06:40:41.985Z,22.77
2018-03-16T06:43:12.126Z,23.60
2018-03-16T06:45:42.298Z,24.03
2018-03-16T06:48:12.521Z,22.90
2018-03-16T06:50:42.651Z,23.13
2018-03-16T06:53:17.582Z,22.77
2018-03-16T06:55:48.561Z,22.60
2018-03-16T06:58:18.808Z,21.67
2018-03-16T07:00:49.759Z,21.63
2018-03-16T07:03:20.050Z,21.93
2018-03-16T07:05:50.361Z,23.90
2018-03-16T07:08:21.414Z,20.97
2018-03-16T07:10:52.466Z,22.20
2018-03-16T07:13:22.994Z,21.80
2018-03-16T07:16:23.922Z,23.57
2018-03-16T07:18:54.107Z,23.40
2018-03-16T07:21:24.578Z,21.67
2018-03-16T07:23:55.679Z,22.00
2018-03-16T07:26:25.866Z,23.77
2018-03-16T07:28:56.231Z,22.50
2018-03-16T07:32:55.784Z,20.87
2018-03-16T07:35:26.155Z,22.60
2018-03-16T07:37:56.385Z,20.60
2018-03-16T07:40:26.730Z,19.50
2018-03-16T07:42:57.006Z,21.57
2018-03-16T07:45:32.144Z,20.30
2018-03-16T07:48:03.338Z,20.60
2018-03-16T07:50:33.615Z,21.60
2018-03-16T07:53:04.496Z,20.53
2018-03-16T07:55:42.107Z,20.13
2018-03-16T07:58:12.662Z,21.33
2018-03-16T08:00:42.791Z,21.67
2018-03-16T08:03:12.994Z,19.50
2018-03-16T08:05:43.444Z,20.27
2018-03-16T08:08:14.963Z,19.53
2018-03-16T08:10:45.289Z,20.77
2018-03-16T08:13:15.891Z,22.13
2018-03-16T08:15:46.162Z,19.90
2018-03-16T08:18:16.503Z,20.60
2018-03-16T08:20:46.787Z,22.03
2018-03-16T08:23:17.051Z,20.47
2018-03-16T08:25:47.960Z,21.50
2018-03-16T08:28:18.322Z,21.00
2018-03-16T08:30:48.909Z,22.10
2018-03-16T08:33:19.330Z,20.17
2018-03-16T08:35:49.872Z,19.20
2018-03-16T08:38:20.381Z,21.40
2018-03-16T08:40:51.188Z,19.67
2018-03-16T08:43:21.493Z,18.87
2018-03-16T08:45:52.426Z,20.93
2018-03-16T08:48:23.586Z,18.40
2018-03-16T08:50:53.816Z,19.37
2018-03-16T08:53:24.204Z,19.03
2018-03-16T08:55:54.392Z,20.00
2018-03-16T08:58:24.771Z,20.40
2018-03-16T09:00:55.136Z,20.70
2018-03-16T09:03:25.675Z,19.47
2018-03-16T09:05:55.954Z,17.80
2018-03-16T09:08:26.638Z,17.60
2018-03-16T09:10:57.325Z,17.60
2018-03-16T09:13:27.724Z,15.30
2018-03-16T09:15:57.896Z,16.30
2018-03-16T09:18:28.155Z,15.93
2018-03-16T09:20:59.049Z,15.83
2018-03-16T09:23:30.254Z,17.53
2018-03-16T09:26:00.442Z,15.70
2018-03-16T09:31:30.230Z,15.70
2018-03-16T09:34:01.351Z,14.90
2018-03-16T09:36:31.799Z,14.60
2018-03-16T09:39:03.143Z,15.80
2018-03-16T09:41:33.355Z,16.97
2018-03-16T09:44:03.501Z,15.27
2018-03-16T09:46:33.733Z,14.83
2018-03-16T09:49:04.974Z,13.97
2018-03-16T09:51:35.977Z,13.90
2018-03-16T09:54:06.220Z,15.17
2018-03-16T09:56:36.582Z,14.10
2018-03-16T09:59:07.785Z,13.47
2018-03-16T10:01:37.922Z,12.60
2018-03-16T10:04:08.814Z,12.70
2018-03-16T10:06:39.039Z,11.90
2018-03-16T10:09:09.358Z,12.03
2018-03-16T10:11:39.902Z,11.70
2018-03-16T10:14:10.219Z,11.00
2018-03-16T10:16:40.412Z,11.30
2018-03-16T10:19:10.737Z,11.50
2018-03-16T10:21:40.957Z,12.30
2018-03-16T10:24:12.790Z,11.40
2018-03-16T10:26:43.045Z,11.00
2018-03-16T10:29:13.497Z,10.93
2018-03-16T10:31:43.733Z,10.10
2018-03-16T10:34:14.303Z,9.50
2018-03-16T10:36:44.574Z,11.83
2018-03-16T10:39:14.854Z,10.67
2018-03-16T10:41:45.849Z,10.77
2018-03-16T10:44:16.390Z,11.93
2018-03-16T10:46:46.612Z,11.63
2018-03-16T10:49:16.896Z,10.73
2018-03-16T10:51:47.044Z,10.03
2018-03-16T10:54:17.389Z,12.60
2018-03-16T10:56:47.966Z,11.70
2018-03-16T10:59:18.305Z,10.33
2018-03-16T11:01:52.566Z,11.33
2018-03-16T11:04:27.693Z,11.87
2018-03-16T11:07:01.998Z,10.70
2018-03-16T11:09:32.461Z,12.03
2018-03-16T11:12:03.454Z,11.50
2018-03-16T11:14:33.696Z,11.00
2018-03-16T11:17:04.356Z,9.60
2018-03-16T11:19:34.498Z,11.53
2018-03-16T11:22:04.701Z,10.80
2018-03-16T11:24:34.903Z,11.70
2018-03-16T11:27:06.364Z,12.17
2018-03-16T11:29:36.723Z,11.30
2018-03-16T11:32:07.025Z,11.37
2018-03-16T11:34:37.941Z,10.93
2018-03-16T11:37:08.651Z,10.53
2018-03-16T11:39:38.930Z,14.30
2018-03-16T11:42:09.952Z,11.50
2018-03-16T11:44:40.164Z,12.70
2018-03-16T11:47:10.494Z,11.57
2018-03-16T11:49:40.645Z,11.67
2018-03-16T11:52:12.128Z,10.37
2018-03-16T11:54:42.557Z,10.47
2018-03-16T11:57:15.478Z,11.53
2018-03-16T11:59:45.893Z,11.27
2018-03-16T12:02:16.197Z,11.47
2018-03-16T12:04:46.354Z,11.50
2018-03-16T12:07:16.916Z,11.80
2018-03-16T12:09:47.291Z,10.90
2018-03-16T12:12:17.907Z,11.53
2018-03-16T12:14:48.459Z,11.20
2018-03-16T12:17:18.656Z,10.30
2018-03-16T12:19:48.802Z,9.93
2018-03-16T12:22:19.002Z,10.83
2018-03-16T12:24:49.469Z,10.17
2018-03-16T12:27:19.609Z,10.13
2018-03-16T12:29:50.650Z,9.13
2018-03-16T12:32:20.815Z,10.13
2018-03-16T12:34:51.339Z,10.60
2018-03-16T12:37:21.559Z,10.93
2018-03-16T12:39:51.764Z,12.13
2018-03-16T12:42:22.736Z,10.67
2018-03-16T12:44:53.223Z,10.63
2018-03-16T12:47:24.286Z,11.27
2018-03-16T12:49:54.656Z,9.83
2018-03-16T12:52:25.328Z,10.03
2018-03-16T12:54:55.810Z,9.93
2018-03-16T12:57:26.824Z,9.70
2018-03-16T12:59:57.105Z,9.17
2018-03-16T13:02:28.050Z,11.00
2018-03-16T13:04:58.234Z,9.57
2018-03-16T13:07:28.414Z,9.90
2018-03-16T13:09:58.990Z,10.10
2018-03-16T13:12:29.169Z,10.17
2018-03-16T13:14:59.440Z,8.87
2018-03-16T13:17:29.685Z,9.60
2018-03-16T13:20:00.710Z,10.10
2018-03-16T13:22:31.516Z,10.87
2018-03-16T13:25:01.957Z,9.50
2018-03-16T13:27:32.157Z,10.17
2018-03-16T13:30:02.763Z,10.53
2018-03-16T13:32:34.265Z,9.87
2018-03-16T13:35:04.855Z,9.13
2018-03-16T13:37:35.774Z,10.17
2018-03-16T13:40:06.089Z,9.37
2018-03-16T13:42:36.300Z,10.37
2018-03-16T13:45:06.752Z,9.67
2018-03-16T13:47:37.747Z,10.13
2018-03-16T13:50:08.055Z,10.50
2018-03-16T13:52:38.601Z,8.60
2018-03-16T13:55:08.833Z,8.87
2018-03-16T13:57:39.154Z,8.23
2018-03-16T14:00:09.508Z,8.40
2018-03-16T14:02:40.860Z,8.33
2018-03-16T14:05:11.075Z,7.77
2018-03-16T14:07:41.915Z,8.50
2018-03-16T14:10:12.283Z,8.00
2018-03-16T14:12:42.874Z,9.70
2018-03-16T14:15:13.290Z,7.47
2018-03-16T14:17:45.572Z,7.70
2018-03-16T14:20:16.015Z,8.87
2018-03-16T14:22:47.713Z,8.30
2018-03-16T14:25:17.950Z,7.87
2018-03-16T14:27:48.156Z,9.10
2018-03-16T14:30:18.308Z,8.00
2018-03-16T14:32:48.478Z,7.83
2018-03-16T14:35:19.442Z,7.57
2018-03-16T14:37:50.036Z,7.23
2018-03-16T14:40:24.088Z,7.60
2018-03-16T14:42:56.362Z,7.63
2018-03-16T14:45:26.910Z,7.07
2018-03-16T14:47:57.403Z,7.50
2018-03-16T14:50:27.642Z,8.13
2018-03-16T14:52:57.852Z,6.70
2018-03-16T14:55:29.345Z,7.63
2018-03-16T14:57:59.593Z,6.93
2018-03-16T15:00:30.344Z,7.23
2018-03-16T15:03:00.490Z,5.80
2018-03-16T15:05:32.779Z,6.53
2018-03-16T15:08:04.318Z,6.60
2018-03-16T15:10:34.424Z,6.60
2018-03-16T15:13:04.980Z,6.43
2018-03-16T15:15:35.100Z,6.30
2018-03-16T15:18:05.373Z,6.40
2018-03-16T15:20:36.828Z,6.23
2018-03-16T15:23:07.659Z,5.60
2018-03-16T15:25:37.874Z,6.30
2018-03-16T15:28:08.402Z,6.10
2018-03-16T15:30:38.633Z,5.60
2018-03-16T15:33:09.208Z,6.30
2018-03-16T15:35:39.399Z,5.83
2018-03-16T15:38:11.385Z,5.77
2018-03-16T15:40:41.900Z,6.03
2018-03-16T15:43:12.725Z,6.60
2018-03-16T15:45:43.657Z,6.60
2018-03-16T15:48:13.796Z,7.00
2018-03-16T15:50:44.768Z,6.97
2018-03-16T15:53:14.927Z,7.17
2018-03-16T15:55:46.163Z,7.87
2018-03-16T15:58:16.322Z,7.10
2018-03-16T16:00:47.287Z,7.80
2018-03-16T16:05:41.894Z,7.17
2018-03-16T16:08:12.071Z,6.00
2018-03-16T16:10:43.438Z,7.50
2018-03-16T16:13:14.490Z,6.83
2018-03-16T16:15:44.702Z,6.07
2018-03-16T16:18:15.625Z,7.43
2018-03-16T16:20:45.766Z,7.33
2018-03-16T16:23:16.380Z,6.57
2018-03-16T16:25:46.884Z,7.60
2018-03-16T16:28:17.114Z,7.20
2018-03-16T16:30:47.305Z,6.23
2018-03-16T16:33:17.530Z,5.70
2018-03-16T16:35:47.702Z,6.10
2018-03-16T16:38:18.178Z,7.30
2018-03-16T16:40:48.352Z,6.13
2018-03-16T16:43:18.506Z,6.23
2018-03-16T16:45:48.919Z,6.03
2018-03-16T16:48:19.114Z,6.57
2018-03-16T16:50:49.384Z,6.10
2018-03-16T16:53:19.570Z,6.30
2018-03-16T16:55:49.776Z,6.50
2018-03-16T16:58:19.971Z,5.67
2018-03-16T17:00:50.542Z,5.67
2018-03-16T17:03:20.784Z,5.80
2018-03-16T17:05:51.935Z,6.23
2018-03-16T17:08:22.263Z,6.83
2018-03-16T17:10:53.114Z,6.00
2018-03-16T17:13:24.032Z,6.63
2018-03-16T17:15:54.254Z,5.40
2018-03-16T17:18:27.611Z,5.57
2018-03-16T17:21:00.466Z,5.90
2018-03-16T17:23:31.119Z,5.30
2018-03-16T17:26:01.417Z,6.17
2018-03-16T17:28:32.376Z,5.30
2018-03-16T17:31:02.767Z,5.77
2018-03-16T17:33:33.966Z,6.60
2018-03-16T17:36:04.432Z,6.20
2018-03-16T17:38:34.916Z,6.10
2018-03-16T17:41:05.121Z,5.47
2018-03-16T17:43:35.308Z,5.70
2018-03-16T17:46:05.781Z,5.43
2018-03-16T17:48:35.997Z,5.40
2018-03-16T17:53:46.607Z,6.60
2018-03-16T17:56:16.761Z,5.80
2018-03-16T17:58:46.935Z,5.43
2018-03-16T18:01:17.086Z,5.60
2018-03-16T18:03:47.286Z,5.20
2018-03-16T18:06:17.544Z,4.63
2018-03-16T18:08:48.144Z,5.87
2018-03-16T18:11:18.425Z,5.57
2018-03-16T18:13:48.665Z,5.77
2018-03-16T18:18:59.791Z,5.17
2018-03-16T18:21:30.484Z,4.80
2018-03-16T18:24:01.656Z,4.97
2018-03-16T18:26:31.968Z,5.00
2018-03-16T18:29:02.739Z,5.73
2018-03-16T18:31:33.002Z,5.93
2018-03-16T18:34:03.191Z,5.13
2018-03-16T18:36:33.695Z,5.30
2018-03-16T18:39:04.154Z,5.30
2018-03-16T18:41:34.325Z,4.77
2018-03-16T18:44:05.472Z,5.60
2018-03-16T18:46:46.067Z,4.30
2018-03-16T18:49:20.468Z,4.17
2018-03-16T18:51:51.384Z,4.97
2018-03-16T18:54:22.611Z,4.40
2018-03-16T18:56:52.969Z,4.80
2018-03-16T18:59:23.346Z,4.20
2018-03-16T19:01:53.647Z,4.50
2018-03-16T19:04:23.795Z,4.60
2018-03-16T19:06:54.006Z,4.20
2018-03-16T19:09:24.506Z,4.63
2018-03-16T19:11:54.697Z,4.17
2018-03-16T19:14:25.207Z,4.40
2018-03-16T19:16:55.714Z,3.77
2018-03-16T19:19:26.707Z,4.20
2018-03-16T19:21:57.204Z,4.30
2018-03-16T19:24:27.437Z,5.07
2018-03-16T19:26:57.886Z,4.30
2018-03-16T19:29:28.254Z,5.17
2018-03-16T19:32:00.718Z,4.37
2018-03-16T19:34:32.119Z,4.57
2018-03-16T19:37:02.359Z,5.00
2018-03-16T19:39:32.625Z,4.27
2018-03-16T19:42:03.306Z,4.43
2018-03-16T19:44:33.774Z,5.23
2018-03-16T19:47:04.143Z,4.13
2018-03-16T19:49:34.515Z,3.47
2018-03-16T19:52:06.139Z,3.80
2018-03-16T19:54:37.366Z,3.07
2018-03-16T19:57:07.933Z,4.43
2018-03-16T19:59:39.021Z,4.43
2018-03-16T20:02:09.643Z,3.77
2018-03-16T20:04:41.145Z,4.30
2018-03-16T20:07:11.375Z,5.23
2018-03-16T20:09:41.646Z,4.50
2018-03-16T20:12:12.079Z,3.73
2018-03-16T20:14:42.957Z,3.07
2018-03-16T20:17:13.321Z,4.63
2018-03-16T20:19:44.667Z,3.07
2018-03-16T20:22:14.950Z,3.80
2018-03-16T20:24:45.125Z,4.30
2018-03-16T20:27:15.599Z,4.70
2018-03-16T20:29:48.470Z,3.57
2018-03-16T20:32:18.657Z,4.00
2018-03-16T20:34:48.894Z,3.77
2018-03-16T20:37:19.326Z,3.60
2018-03-16T20:39:50.004Z,3.23
2018-03-16T20:42:20.318Z,3.40
2018-03-16T20:44:50.841Z,3.47
2018-03-16T20:47:21.550Z,4.20
2018-03-16T20:49:51.757Z,3.60
2018-03-16T20:52:21.962Z,3.37
2018-03-16T20:54:52.120Z,4.37
2018-03-16T20:57:22.404Z,3.70
2018-03-16T20:59:54.627Z,3.63
2018-03-16T21:02:24.895Z,3.80
2018-03-16T21:04:55.165Z,4.30
2018-03-16T21:07:25.591Z,3.40
2018-03-16T21:09:56.821Z,3.30
2018-03-16T21:12:27.179Z,3.40
2018-03-16T21:14:58.226Z,3.13
2018-03-16T21:17:28.599Z,4.30
2018-03-16T21:19:58.886Z,3.97
2018-03-16T21:22:29.627Z,4.17
2018-03-16T21:24:59.795Z,3.57
2018-03-16T21:27:30.049Z,3.27
2018-03-16T21:30:01.102Z,3.67
2018-03-16T21:32:31.614Z,4.20
2018-03-16T21:35:01.875Z,3.57
2018-03-16T21:37:32.805Z,3.80
2018-03-16T21:40:03.305Z,3.77
2018-03-16T21:42:33.996Z,3.43
2018-03-16T21:45:04.722Z,3.37
2018-03-16T21:47:35.228Z,3.90
2018-03-16T21:50:06.391Z,3.57
2018-03-16T21:52:37.184Z,3.67
2018-03-16T21:55:07.745Z,4.20
2018-03-16T21:57:38.198Z,3.00
2018-03-16T22:00:08.466Z,3.60
2018-03-16T22:02:39.709Z,3.63
2018-03-16T22:05:09.952Z,3.77
2018-03-16T22:07:41.263Z,3.10
2018-03-16T22:10:12.400Z,3.43
2018-03-16T22:12:47.587Z,3.80
2018-03-16T22:15:25.300Z,4.37
2018-03-16T22:17:56.732Z,4.00
2018-03-16T22:20:27.710Z,3.60
2018-03-16T22:22:57.930Z,3.87
2018-03-16T22:25:28.180Z,4.00
2018-03-16T22:27:59.330Z,4.00
2018-03-16T22:30:30.003Z,3.97
2018-03-16T22:33:00.431Z,3.50
2018-03-16T22:35:31.912Z,3.50
2018-03-16T22:38:02.421Z,3.40
2018-03-16T22:40:33.180Z,3.40
2018-03-16T22:43:03.941Z,3.20
2018-03-16T22:45:34.997Z,3.60
2018-03-16T22:48:05.719Z,3.10
2018-03-16T22:50:36.886Z,3.40
2018-03-16T22:53:07.081Z,3.53
2018-03-16T22:55:37.259Z,3.30
2018-03-16T22:58:08.062Z,3.10
2018-03-16T23:00:39.350Z,2.97
2018-03-16T23:03:09.931Z,3.30
2018-03-16T23:05:40.456Z,3.20
2018-03-16T23:08:10.927Z,3.43
2018-03-16T23:10:41.250Z,3.67
2018-03-16T23:13:11.405Z,3.60
2018-03-16T23:15:42.626Z,3.77
2018-03-16T23:18:13.262Z,3.10
2018-03-16T23:20:44.178Z,2.80
2018-03-16T23:23:14.979Z,3.63
2018-03-16T23:25:45.304Z,2.90
2018-03-16T23:28:16.546Z,3.47
2018-03-16T23:30:47.005Z,3.57
2018-03-16T23:33:17.636Z,3.57
2018-03-16T23:35:48.031Z,3.43
2018-03-16T23:38:18.668Z,2.87
2018-03-16T23:40:49.360Z,3.17
2018-03-16T23:43:20.454Z,2.80
2018-03-16T23:45:50.986Z,3.00
2018-03-16T23:48:21.505Z,2.67
2018-03-16T23:50:52.478Z,2.90
2018-03-16T23:53:22.715Z,2.70
2018-03-16T23:55:53.316Z,2.60
2018-03-16T23:58:23.862Z,2.60
